sensor_id;sensor_type;location;lat;lon;timestamp;temperature;humidity
10472;DHT22;5283;48.876;8.962;2023-03-13T00:00:43;3.10;99.90
10472;DHT22;5283;48.876;8.962;2023-03-13T00:04:23;3.30;99.90
10472;DHT22;5283;48.876;8.962;2023-03-13T00:07:27;3.40;99.90
10472;DHT22;5283;48.876;8.962;2023-03-13T00:10:45;3.50;99.90
10472;DHT22;5283;48.876;8.962;2023-03-13T00:17:55;3.60;99.90
10472;DHT22;5283;48.876;8.962;2023-03-13T00:21:07;3.70;99.90
10472;DHT22;5283;48.876;8.962;2023-03-13T00:23:39;3.90;99.90
10472;DHT22;5283;48.876;8.962;2023-03-13T00:26:11;3.90;99.90
10472;DHT22;5283;48.876;8.962;2023-03-13T00:28:38;4.10;99.90
10472;DHT22;5283;48.876;8.962;2023-03-13T00:31:13;4.20;99.90
10472;DHT22;5283;48.876;8.962;2023-03-13T00:33:46;4.30;99.90
10472;DHT22;5283;48.876;8.962;2023-03-13T00:36:31;4.30;99.90
10472;DHT22;5283;48.876;8.962;2023-03-13T00:39:15;4.40;99.90
10472;DHT22;5283;48.876;8.962;2023-03-13T00:41:46;4.40;99.90
10472;DHT22;5283;48.876;8.962;2023-03-13T00:44:16;4.40;99.90
10472;DHT22;5283;48.876;8.962;2023-03-13T00:46:42;4.30;99.90
10472;DHT22;5283;48.876;8.962;2023-03-13T00:49:09;4.30;99.90
10472;DHT22;5283;48.876;8.962;2023-03-13T00:51:36;4.30;99.90
10472;DHT22;5283;48.876;8.962;2023-03-13T00:54:02;4.30;99.90
10472;DHT22;5283;48.876;8.962;2023-03-13T00:56:30;4.30;99.90
10472;DHT22;5283;48.876;8.962;2023-03-13T00:58:58;4.30;99.90
10472;DHT22;5283;48.876;8.962;2023-03-13T01:01:33;4.40;99.90
10472;DHT22;5283;48.876;8.962;2023-03-13T01:04:06;4.40;99.90
10472;DHT22;5283;48.876;8.962;2023-03-13T01:06:35;4.50;99.90
10472;DHT22;5283;48.876;8.962;2023-03-13T01:09:04;4.60;99.90
10472;DHT22;5283;48.876;8.962;2023-03-13T01:11:34;4.70;99.90
10472;DHT22;5283;48.876;8.962;2023-03-13T01:14:03;4.80;99.90
10472;DHT22;5283;48.876;8.962;2023-03-13T01:16:32;4.80;99.90
10472;DHT22;5283;48.876;8.962;2023-03-13T01:19:01;5.00;99.90
10472;DHT22;5283;48.876;8.962;2023-03-13T01:21:29;5.10;99.90
10472;DHT22;5283;48.876;8.962;2023-03-13T01:23:56;5.20;99.90
10472;DHT22;5283;48.876;8.962;2023-03-13T01:26:24;5.30;99.90
10472;DHT22;5283;48.876;8.962;2023-03-13T01:28:51;5.30;99.90
10472;DHT22;5283;48.876;8.962;2023-03-13T01:31:21;5.30;99.90
10472;DHT22;5283;48.876;8.962;2023-03-13T01:33:50;5.40;99.90
10472;DHT22;5283;48.876;8.962;2023-03-13T01:36:18;5.50;99.90
10472;DHT22;5283;48.876;8.962;2023-03-13T01:38:49;5.60;99.90
10472;DHT22;5283;48.876;8.962;2023-03-13T01:41:16;5.80;99.90
10472;DHT22;5283;48.876;8.962;2023-03-13T01:43:43;5.90;99.90
10472;DHT22;5283;48.876;8.962;2023-03-13T01:51:31;6.20;99.90
10472;DHT22;5283;48.876;8.962;2023-03-13T01:54:13;6.40;99.90
10472;DHT22;5283;48.876;8.962;2023-03-13T01:56:48;6.50;99.90
10472;DHT22;5283;48.876;8.962;2023-03-13T01:59:21;6.60;99.90
10472;DHT22;5283;48.876;8.962;2023-03-13T02:01:50;6.70;99.90
10472;DHT22;5283;48.876;8.962;2023-03-13T02:04:20;6.70;99.90
10472;DHT22;5283;48.876;8.962;2023-03-13T02:06:50;6.80;99.90
10472;DHT22;5283;48.876;8.962;2023-03-13T02:09:20;6.80;99.90
10472;DHT22;5283;48.876;8.962;2023-03-13T02:12:31;6.80;99.90
10472;DHT22;5283;48.876;8.962;2023-03-13T02:14:49;6.90;99.90
10472;DHT22;5283;48.876;8.962;2023-03-13T02:17:16;6.90;99.90
10472;DHT22;5283;48.876;8.962;2023-03-13T02:19:48;7.00;99.90
10472;DHT22;5283;48.876;8.962;2023-03-13T02:22:41;7.10;99.90
10472;DHT22;5283;48.876;8.962;2023-03-13T02:25:33;7.20;99.90
10472;DHT22;5283;48.876;8.962;2023-03-13T02:28:04;7.30;99.90
10472;DHT22;5283;48.876;8.962;2023-03-13T02:30:32;7.40;99.90
10472;DHT22;5283;48.876;8.962;2023-03-13T02:33:00;7.50;99.90
10472;DHT22;5283;48.876;8.962;2023-03-13T02:35:27;7.60;99.90
10472;DHT22;5283;48.876;8.962;2023-03-13T02:37:58;7.60;99.90
10472;DHT22;5283;48.876;8.962;2023-03-13T02:40:32;7.70;99.90
10472;DHT22;5283;48.876;8.962;2023-03-13T02:43:04;7.80;99.90
10472;DHT22;5283;48.876;8.962;2023-03-13T02:45:31;7.80;99.90
10472;DHT22;5283;48.876;8.962;2023-03-13T02:47:58;7.90;99.90
10472;DHT22;5283;48.876;8.962;2023-03-13T02:50:25;7.90;99.90
10472;DHT22;5283;48.876;8.962;2023-03-13T02:53:00;7.90;99.90
10472;DHT22;5283;48.876;8.962;2023-03-13T02:55:29;7.90;99.90
10472;DHT22;5283;48.876;8.962;2023-03-13T02:57:57;8.00;99.90
10472;DHT22;5283;48.876;8.962;2023-03-13T03:00:23;8.10;99.90
10472;DHT22;5283;48.876;8.962;2023-03-13T03:02:53;8.20;99.90
10472;DHT22;5283;48.876;8.962;2023-03-13T03:05:19;8.20;99.90
10472;DHT22;5283;48.876;8.962;2023-03-13T03:07:48;8.20;99.90
10472;DHT22;5283;48.876;8.962;2023-03-13T03:10:17;8.30;99.90
10472;DHT22;5283;48.876;8.962;2023-03-13T03:12:44;8.20;99.90
10472;DHT22;5283;48.876;8.962;2023-03-13T03:15:11;8.10;99.90
10472;DHT22;5283;48.876;8.962;2023-03-13T03:17:38;8.20;99.90
10472;DHT22;5283;48.876;8.962;2023-03-13T03:20:05;8.20;99.90
10472;DHT22;5283;48.876;8.962;2023-03-13T03:22:38;8.10;99.90
10472;DHT22;5283;48.876;8.962;2023-03-13T03:25:07;8.10;99.90
10472;DHT22;5283;48.876;8.962;2023-03-13T03:27:34;8.10;99.90
10472;DHT22;5283;48.876;8.962;2023-03-13T03:30:03;8.10;99.90
10472;DHT22;5283;48.876;8.962;2023-03-13T03:32:30;8.10;99.90
10472;DHT22;5283;48.876;8.962;2023-03-13T03:34:56;8.10;99.90
10472;DHT22;5283;48.876;8.962;2023-03-13T03:37:23;8.40;99.90
10472;DHT22;5283;48.876;8.962;2023-03-13T03:39:50;8.90;99.90
10472;DHT22;5283;48.876;8.962;2023-03-13T03:42:16;9.00;99.90
10472;DHT22;5283;48.876;8.962;2023-03-13T03:44:43;9.30;99.90
10472;DHT22;5283;48.876;8.962;2023-03-13T03:47:10;9.50;99.90
10472;DHT22;5283;48.876;8.962;2023-03-13T03:49:36;9.90;99.90
10472;DHT22;5283;48.876;8.962;2023-03-13T03:52:03;10.00;99.90
10472;DHT22;5283;48.876;8.962;2023-03-13T03:54:30;10.10;99.90
10472;DHT22;5283;48.876;8.962;2023-03-13T03:56:57;10.20;99.90
10472;DHT22;5283;48.876;8.962;2023-03-13T03:59:25;10.30;99.90
10472;DHT22;5283;48.876;8.962;2023-03-13T04:01:51;10.40;99.90
10472;DHT22;5283;48.876;8.962;2023-03-13T04:04:18;10.40;99.90
10472;DHT22;5283;48.876;8.962;2023-03-13T04:06:45;10.50;99.90
10472;DHT22;5283;48.876;8.962;2023-03-13T04:09:11;10.50;99.90
10472;DHT22;5283;48.876;8.962;2023-03-13T04:11:38;10.60;99.90
10472;DHT22;5283;48.876;8.962;2023-03-13T04:14:05;10.80;99.90
10472;DHT22;5283;48.876;8.962;2023-03-13T04:16:32;10.80;99.90
10472;DHT22;5283;48.876;8.962;2023-03-13T04:18:58;10.70;99.90
10472;DHT22;5283;48.876;8.962;2023-03-13T04:21:25;10.70;99.90
10472;DHT22;5283;48.876;8.962;2023-03-13T04:23:52;10.70;99.90
10472;DHT22;5283;48.876;8.962;2023-03-13T04:26:18;10.70;99.90
10472;DHT22;5283;48.876;8.962;2023-03-13T04:28:45;10.80;99.90
10472;DHT22;5283;48.876;8.962;2023-03-13T04:31:12;10.80;99.90
10472;DHT22;5283;48.876;8.962;2023-03-13T04:33:38;10.80;99.90
10472;DHT22;5283;48.876;8.962;2023-03-13T04:36:05;10.80;99.90
10472;DHT22;5283;48.876;8.962;2023-03-13T04:38:32;10.80;99.90
10472;DHT22;5283;48.876;8.962;2023-03-13T04:40:59;10.80;99.90
10472;DHT22;5283;48.876;8.962;2023-03-13T04:43:25;10.80;99.90
10472;DHT22;5283;48.876;8.962;2023-03-13T04:45:52;10.80;99.90
10472;DHT22;5283;48.876;8.962;2023-03-13T04:48:22;10.80;99.90
10472;DHT22;5283;48.876;8.962;2023-03-13T04:50:49;10.80;99.90
10472;DHT22;5283;48.876;8.962;2023-03-13T04:53:15;10.80;99.90
10472;DHT22;5283;48.876;8.962;2023-03-13T04:55:42;10.80;99.90
10472;DHT22;5283;48.876;8.962;2023-03-13T04:58:09;10.80;99.90
10472;DHT22;5283;48.876;8.962;2023-03-13T05:00:39;10.80;99.90
10472;DHT22;5283;48.876;8.962;2023-03-13T05:03:06;10.80;99.90
10472;DHT22;5283;48.876;8.962;2023-03-13T05:05:34;10.80;99.90
10472;DHT22;5283;48.876;8.962;2023-03-13T05:08:01;10.90;99.90
10472;DHT22;5283;48.876;8.962;2023-03-13T05:10:27;10.80;99.90
10472;DHT22;5283;48.876;8.962;2023-03-13T05:12:54;10.90;99.90
10472;DHT22;5283;48.876;8.962;2023-03-13T05:15:21;10.90;99.90
10472;DHT22;5283;48.876;8.962;2023-03-13T05:17:48;11.00;99.90
10472;DHT22;5283;48.876;8.962;2023-03-13T05:20:14;11.00;99.90
10472;DHT22;5283;48.876;8.962;2023-03-13T05:22:41;10.90;99.90
10472;DHT22;5283;48.876;8.962;2023-03-13T05:25:08;11.00;99.90
10472;DHT22;5283;48.876;8.962;2023-03-13T05:27:34;11.00;99.90
10472;DHT22;5283;48.876;8.962;2023-03-13T05:30:01;11.00;99.90
10472;DHT22;5283;48.876;8.962;2023-03-13T05:32:28;11.00;99.90
10472;DHT22;5283;48.876;8.962;2023-03-13T05:34:55;11.10;99.90
10472;DHT22;5283;48.876;8.962;2023-03-13T05:37:21;11.10;99.90
10472;DHT22;5283;48.876;8.962;2023-03-13T05:39:48;11.10;99.90
10472;DHT22;5283;48.876;8.962;2023-03-13T05:42:15;11.10;99.90
10472;DHT22;5283;48.876;8.962;2023-03-13T05:44:41;11.10;99.90
10472;DHT22;5283;48.876;8.962;2023-03-13T05:47:08;11.20;99.90
10472;DHT22;5283;48.876;8.962;2023-03-13T05:49:35;11.20;99.90
10472;DHT22;5283;48.876;8.962;2023-03-13T05:52:02;11.20;99.90
10472;DHT22;5283;48.876;8.962;2023-03-13T05:54:29;11.20;99.90
10472;DHT22;5283;48.876;8.962;2023-03-13T05:56:55;11.10;99.90
10472;DHT22;5283;48.876;8.962;2023-03-13T05:59:22;11.10;99.90
10472;DHT22;5283;48.876;8.962;2023-03-13T06:01:48;11.10;99.90
10472;DHT22;5283;48.876;8.962;2023-03-13T06:04:15;11.10;99.90
10472;DHT22;5283;48.876;8.962;2023-03-13T06:06:42;11.20;99.90
10472;DHT22;5283;48.876;8.962;2023-03-13T06:09:09;11.20;99.90
10472;DHT22;5283;48.876;8.962;2023-03-13T06:11:37;11.20;99.90
10472;DHT22;5283;48.876;8.962;2023-03-13T06:14:03;11.30;99.90
10472;DHT22;5283;48.876;8.962;2023-03-13T06:16:30;11.30;99.90
10472;DHT22;5283;48.876;8.962;2023-03-13T06:18:57;11.40;99.90
10472;DHT22;5283;48.876;8.962;2023-03-13T06:21:24;11.40;99.90
10472;DHT22;5283;48.876;8.962;2023-03-13T06:23:51;11.40;99.90
10472;DHT22;5283;48.876;8.962;2023-03-13T06:26:18;11.40;99.90
10472;DHT22;5283;48.876;8.962;2023-03-13T06:28:44;11.50;99.90
10472;DHT22;5283;48.876;8.962;2023-03-13T06:31:11;11.60;99.90
10472;DHT22;5283;48.876;8.962;2023-03-13T06:33:38;11.60;99.90
10472;DHT22;5283;48.876;8.962;2023-03-13T06:36:05;11.60;99.90
10472;DHT22;5283;48.876;8.962;2023-03-13T06:38:32;11.60;99.90
10472;DHT22;5283;48.876;8.962;2023-03-13T06:40:59;11.70;99.90
10472;DHT22;5283;48.876;8.962;2023-03-13T06:43:28;11.70;99.90
10472;DHT22;5283;48.876;8.962;2023-03-13T06:45:55;11.70;99.90
10472;DHT22;5283;48.876;8.962;2023-03-13T06:48:22;11.80;99.90
10472;DHT22;5283;48.876;8.962;2023-03-13T06:50:49;11.80;99.90
10472;DHT22;5283;48.876;8.962;2023-03-13T06:53:18;11.80;99.90
10472;DHT22;5283;48.876;8.962;2023-03-13T06:55:46;11.80;99.90
10472;DHT22;5283;48.876;8.962;2023-03-13T06:58:12;11.90;99.90
10472;DHT22;5283;48.876;8.962;2023-03-13T07:00:56;11.90;99.90
10472;DHT22;5283;48.876;8.962;2023-03-13T07:03:22;11.90;99.90
10472;DHT22;5283;48.876;8.962;2023-03-13T07:05:55;11.90;99.90
10472;DHT22;5283;48.876;8.962;2023-03-13T07:08:22;12.00;99.90
10472;DHT22;5283;48.876;8.962;2023-03-13T07:10:51;12.00;99.90
10472;DHT22;5283;48.876;8.962;2023-03-13T07:13:19;12.00;99.90
10472;DHT22;5283;48.876;8.962;2023-03-13T07:15:47;12.00;99.90
10472;DHT22;5283;48.876;8.962;2023-03-13T07:18:14;12.00;99.90
10472;DHT22;5283;48.876;8.962;2023-03-13T07:20:42;12.10;99.90
10472;DHT22;5283;48.876;8.962;2023-03-13T07:23:09;12.00;99.90
10472;DHT22;5283;48.876;8.962;2023-03-13T07:25:36;12.10;99.90
10472;DHT22;5283;48.876;8.962;2023-03-13T07:28:03;12.10;99.90
10472;DHT22;5283;48.876;8.962;2023-03-13T07:30:30;12.20;99.90
10472;DHT22;5283;48.876;8.962;2023-03-13T07:32:57;12.30;99.90
10472;DHT22;5283;48.876;8.962;2023-03-13T07:35:24;12.20;99.90
10472;DHT22;5283;48.876;8.962;2023-03-13T07:37:51;12.20;99.90
10472;DHT22;5283;48.876;8.962;2023-03-13T07:40:18;12.30;99.90
10472;DHT22;5283;48.876;8.962;2023-03-13T07:42:44;12.30;99.90
10472;DHT22;5283;48.876;8.962;2023-03-13T07:45:11;12.40;99.90
10472;DHT22;5283;48.876;8.962;2023-03-13T07:47:38;12.40;99.90
10472;DHT22;5283;48.876;8.962;2023-03-13T07:50:05;12.50;99.90
10472;DHT22;5283;48.876;8.962;2023-03-13T07:52:32;12.60;99.90
10472;DHT22;5283;48.876;8.962;2023-03-13T07:54:59;12.70;99.90
10472;DHT22;5283;48.876;8.962;2023-03-13T07:57:26;12.80;99.90
10472;DHT22;5283;48.876;8.962;2023-03-13T07:59:52;12.90;99.90
10472;DHT22;5283;48.876;8.962;2023-03-13T08:02:19;13.00;99.90
10472;DHT22;5283;48.876;8.962;2023-03-13T08:04:46;13.00;99.90
10472;DHT22;5283;48.876;8.962;2023-03-13T08:07:13;13.20;99.90
10472;DHT22;5283;48.876;8.962;2023-03-13T08:09:39;13.40;99.90
10472;DHT22;5283;48.876;8.962;2023-03-13T08:12:07;13.50;99.90
10472;DHT22;5283;48.876;8.962;2023-03-13T08:14:34;13.30;99.90
10472;DHT22;5283;48.876;8.962;2023-03-13T08:17:01;13.50;99.90
10472;DHT22;5283;48.876;8.962;2023-03-13T08:19:27;13.50;99.90
10472;DHT22;5283;48.876;8.962;2023-03-13T08:21:54;13.50;99.90
10472;DHT22;5283;48.876;8.962;2023-03-13T08:24:21;13.60;99.90
10472;DHT22;5283;48.876;8.962;2023-03-13T08:26:47;13.60;99.90
10472;DHT22;5283;48.876;8.962;2023-03-13T08:29:14;13.60;99.90
10472;DHT22;5283;48.876;8.962;2023-03-13T08:31:43;13.60;99.90
10472;DHT22;5283;48.876;8.962;2023-03-13T08:34:11;13.80;99.90
10472;DHT22;5283;48.876;8.962;2023-03-13T08:36:39;13.80;99.90
10472;DHT22;5283;48.876;8.962;2023-03-13T08:39:10;13.90;99.90
10472;DHT22;5283;48.876;8.962;2023-03-13T08:41:37;14.00;99.90
10472;DHT22;5283;48.876;8.962;2023-03-13T08:44:07;14.00;99.90
10472;DHT22;5283;48.876;8.962;2023-03-13T08:46:35;13.90;99.90
10472;DHT22;5283;48.876;8.962;2023-03-13T08:49:04;14.20;99.90
10472;DHT22;5283;48.876;8.962;2023-03-13T08:51:32;14.40;99.90
10472;DHT22;5283;48.876;8.962;2023-03-13T08:54:00;14.30;99.90
10472;DHT22;5283;48.876;8.962;2023-03-13T08:56:28;14.30;99.90
10472;DHT22;5283;48.876;8.962;2023-03-13T08:59:00;14.30;99.90
10472;DHT22;5283;48.876;8.962;2023-03-13T09:01:30;14.30;99.90
10472;DHT22;5283;48.876;8.962;2023-03-13T09:03:57;14.40;99.90
10472;DHT22;5283;48.876;8.962;2023-03-13T09:06:29;14.60;99.90
10472;DHT22;5283;48.876;8.962;2023-03-13T09:08:56;14.70;99.90
10472;DHT22;5283;48.876;8.962;2023-03-13T09:11:24;14.70;99.90
10472;DHT22;5283;48.876;8.962;2023-03-13T09:13:51;14.90;99.90
10472;DHT22;5283;48.876;8.962;2023-03-13T09:16:24;14.90;99.90
10472;DHT22;5283;48.876;8.962;2023-03-13T09:18:52;15.10;99.90
10472;DHT22;5283;48.876;8.962;2023-03-13T09:21:28;15.30;99.90
10472;DHT22;5283;48.876;8.962;2023-03-13T09:23:55;15.30;99.90
10472;DHT22;5283;48.876;8.962;2023-03-13T09:26:23;15.30;99.90
10472;DHT22;5283;48.876;8.962;2023-03-13T09:28:51;15.40;99.90
10472;DHT22;5283;48.876;8.962;2023-03-13T09:31:27;15.20;99.90
10472;DHT22;5283;48.876;8.962;2023-03-13T09:33:54;15.20;99.90
10472;DHT22;5283;48.876;8.962;2023-03-13T09:36:22;15.00;99.90
10472;DHT22;5283;48.876;8.962;2023-03-13T09:38:54;15.00;99.90
10472;DHT22;5283;48.876;8.962;2023-03-13T09:41:42;15.10;99.90
10472;DHT22;5283;48.876;8.962;2023-03-13T09:44:19;15.20;99.90
10472;DHT22;5283;48.876;8.962;2023-03-13T09:46:58;15.30;99.90
10472;DHT22;5283;48.876;8.962;2023-03-13T09:49:47;15.60;99.90
10472;DHT22;5283;48.876;8.962;2023-03-13T09:52:21;15.90;99.90
10472;DHT22;5283;48.876;8.962;2023-03-13T09:54:58;16.10;99.90
10472;DHT22;5283;48.876;8.962;2023-03-13T10:00:23;15.90;99.90
10472;DHT22;5283;48.876;8.962;2023-03-13T10:03:04;15.70;99.90
10472;DHT22;5283;48.876;8.962;2023-03-13T10:05:33;15.70;99.90
10472;DHT22;5283;48.876;8.962;2023-03-13T10:08:11;15.80;99.90
10472;DHT22;5283;48.876;8.962;2023-03-13T10:16:49;16.10;99.90
10472;DHT22;5283;48.876;8.962;2023-03-13T10:19:35;16.30;99.90
10472;DHT22;5283;48.876;8.962;2023-03-13T10:22:12;16.40;99.90
10472;DHT22;5283;48.876;8.962;2023-03-13T10:24:54;16.60;99.90
10472;DHT22;5283;48.876;8.962;2023-03-13T10:27:21;16.70;99.90
10472;DHT22;5283;48.876;8.962;2023-03-13T10:29:48;16.70;99.90
10472;DHT22;5283;48.876;8.962;2023-03-13T10:32:16;16.70;99.90
10472;DHT22;5283;48.876;8.962;2023-03-13T10:34:58;16.70;99.90
10472;DHT22;5283;48.876;8.962;2023-03-13T10:37:29;16.60;99.90
10472;DHT22;5283;48.876;8.962;2023-03-13T10:42:44;16.70;99.90
10472;DHT22;5283;48.876;8.962;2023-03-13T10:45:17;16.70;99.90
10472;DHT22;5283;48.876;8.962;2023-03-13T10:47:46;16.60;99.90
10472;DHT22;5283;48.876;8.962;2023-03-13T10:50:22;16.60;99.90
10472;DHT22;5283;48.876;8.962;2023-03-13T10:52:50;16.60;99.90
10472;DHT22;5283;48.876;8.962;2023-03-13T10:55:21;16.50;99.90
10472;DHT22;5283;48.876;8.962;2023-03-13T10:58:00;16.80;99.90
10472;DHT22;5283;48.876;8.962;2023-03-13T11:00:32;17.00;99.90
10472;DHT22;5283;48.876;8.962;2023-03-13T11:03:01;17.30;99.90
10472;DHT22;5283;48.876;8.962;2023-03-13T11:05:32;17.40;99.90
10472;DHT22;5283;48.876;8.962;2023-03-13T11:08:11;17.30;99.90
10472;DHT22;5283;48.876;8.962;2023-03-13T11:10:59;17.30;99.90
10472;DHT22;5283;48.876;8.962;2023-03-13T11:13:39;17.50;99.90
10472;DHT22;5283;48.876;8.962;2023-03-13T11:16:18;17.90;99.90
10472;DHT22;5283;48.876;8.962;2023-03-13T11:24:54;18.60;99.90
10472;DHT22;5283;48.876;8.962;2023-03-13T11:27:45;18.40;99.90
10472;DHT22;5283;48.876;8.962;2023-03-13T11:30:39;18.20;99.90
10472;DHT22;5283;48.876;8.962;2023-03-13T11:33:22;18.20;99.90
10472;DHT22;5283;48.876;8.962;2023-03-13T11:35:59;18.20;99.90
10472;DHT22;5283;48.876;8.962;2023-03-13T11:38:41;18.20;99.90
10472;DHT22;5283;48.876;8.962;2023-03-13T11:41:29;18.20;99.90
10472;DHT22;5283;48.876;8.962;2023-03-13T11:44:56;18.20;99.90
10472;DHT22;5283;48.876;8.962;2023-03-13T11:47:19;18.10;99.90
10472;DHT22;5283;48.876;8.962;2023-03-13T11:52:49;18.10;99.90
10472;DHT22;5283;48.876;8.962;2023-03-13T11:55:34;18.10;99.90
10472;DHT22;5283;48.876;8.962;2023-03-13T11:59:14;18.10;99.90
10472;DHT22;5283;48.876;8.962;2023-03-13T12:01:20;18.10;99.90
10472;DHT22;5283;48.876;8.962;2023-03-13T12:03:57;18.20;99.90
10472;DHT22;5283;48.876;8.962;2023-03-13T12:06:39;18.30;99.90
10472;DHT22;5283;48.876;8.962;2023-03-13T12:09:25;18.30;99.90
10472;DHT22;5283;48.876;8.962;2023-03-13T12:12:00;18.60;99.90
10472;DHT22;5283;48.876;8.962;2023-03-13T12:14:41;18.70;99.90
10472;DHT22;5283;48.876;8.962;2023-03-13T12:17:14;18.70;99.90
10472;DHT22;5283;48.876;8.962;2023-03-13T12:19:51;18.80;99.90
10472;DHT22;5283;48.876;8.962;2023-03-13T12:22:23;18.90;99.90
10472;DHT22;5283;48.876;8.962;2023-03-13T12:24:59;18.90;99.90
10472;DHT22;5283;48.876;8.962;2023-03-13T12:27:37;18.90;99.90
10472;DHT22;5283;48.876;8.962;2023-03-13T12:30:21;19.00;99.90
10472;DHT22;5283;48.876;8.962;2023-03-13T12:33:04;18.90;99.90
10472;DHT22;5283;48.876;8.962;2023-03-13T12:35:36;19.00;99.90
10472;DHT22;5283;48.876;8.962;2023-03-13T12:38:27;19.10;99.90
10472;DHT22;5283;48.876;8.962;2023-03-13T12:41:24;19.10;99.90
10472;DHT22;5283;48.876;8.962;2023-03-13T12:43:53;19.30;99.90
10472;DHT22;5283;48.876;8.962;2023-03-13T12:52:44;19.60;99.90
10472;DHT22;5283;48.876;8.962;2023-03-13T12:55:35;19.60;99.90
10472;DHT22;5283;48.876;8.962;2023-03-13T12:58:25;19.70;99.90
10472;DHT22;5283;48.876;8.962;2023-03-13T13:00:53;19.70;99.90
10472;DHT22;5283;48.876;8.962;2023-03-13T13:03:48;19.30;99.90
10472;DHT22;5283;48.876;8.962;2023-03-13T13:06:16;19.40;99.90
10472;DHT22;5283;48.876;8.962;2023-03-13T13:16:48;19.50;99.90
10472;DHT22;5283;48.876;8.962;2023-03-13T13:25:00;19.80;99.90
10472;DHT22;5283;48.876;8.962;2023-03-13T13:29:59;19.70;99.90
10472;DHT22;5283;48.876;8.962;2023-03-13T13:32:40;20.00;99.90
10472;DHT22;5283;48.876;8.962;2023-03-13T13:37:39;20.40;99.90
10472;DHT22;5283;48.876;8.962;2023-03-13T13:40:30;20.50;99.90
10472;DHT22;5283;48.876;8.962;2023-03-13T13:43:02;20.50;99.90
10472;DHT22;5283;48.876;8.962;2023-03-13T13:45:34;20.20;99.90
10472;DHT22;5283;48.876;8.962;2023-03-13T13:48:30;20.10;99.90
10472;DHT22;5283;48.876;8.962;2023-03-13T14:02:29;19.20;99.90
10472;DHT22;5283;48.876;8.962;2023-03-13T14:04:51;19.30;99.90
10472;DHT22;5283;48.876;8.962;2023-03-13T14:10:39;20.60;99.90
10472;DHT22;5283;48.876;8.962;2023-03-13T14:13:20;21.10;99.90
10472;DHT22;5283;48.876;8.962;2023-03-13T14:15:49;21.10;99.90
10472;DHT22;5283;48.876;8.962;2023-03-13T14:18:22;20.90;99.90
10472;DHT22;5283;48.876;8.962;2023-03-13T14:23:42;20.20;99.90
10472;DHT22;5283;48.876;8.962;2023-03-13T14:26:25;20.60;99.90
10472;DHT22;5283;48.876;8.962;2023-03-13T14:28:57;20.90;99.90
10472;DHT22;5283;48.876;8.962;2023-03-13T14:31:29;21.30;99.90
10472;DHT22;5283;48.876;8.962;2023-03-13T14:33:58;21.30;99.90
10472;DHT22;5283;48.876;8.962;2023-03-13T14:36:25;21.40;99.90
10472;DHT22;5283;48.876;8.962;2023-03-13T14:38:55;21.50;99.90
10472;DHT22;5283;48.876;8.962;2023-03-13T14:41:43;21.50;99.90
10472;DHT22;5283;48.876;8.962;2023-03-13T14:44:35;21.70;99.90
10472;DHT22;5283;48.876;8.962;2023-03-13T14:47:07;21.30;99.90
10472;DHT22;5283;48.876;8.962;2023-03-13T14:49:35;21.60;99.90
10472;DHT22;5283;48.876;8.962;2023-03-13T14:54:31;22.20;99.90
10472;DHT22;5283;48.876;8.962;2023-03-13T14:59:35;22.50;99.90
10472;DHT22;5283;48.876;8.962;2023-03-13T15:02:14;21.70;99.90
10472;DHT22;5283;48.876;8.962;2023-03-13T15:05:05;21.30;99.90
10472;DHT22;5283;48.876;8.962;2023-03-13T15:07:39;21.10;99.90
10472;DHT22;5283;48.876;8.962;2023-03-13T15:10:25;21.40;99.90
10472;DHT22;5283;48.876;8.962;2023-03-13T15:12:52;21.70;99.90
10472;DHT22;5283;48.876;8.962;2023-03-13T15:15:19;21.80;99.90
10472;DHT22;5283;48.876;8.962;2023-03-13T15:17:45;21.40;99.90
10472;DHT22;5283;48.876;8.962;2023-03-13T15:20:13;21.20;99.90
10472;DHT22;5283;48.876;8.962;2023-03-13T15:22:43;21.10;99.90
10472;DHT22;5283;48.876;8.962;2023-03-13T15:25:19;20.90;99.90
10472;DHT22;5283;48.876;8.962;2023-03-13T15:27:46;20.90;99.90
10472;DHT22;5283;48.876;8.962;2023-03-13T15:30:19;20.90;99.90
10472;DHT22;5283;48.876;8.962;2023-03-13T15:32:48;21.00;99.90
10472;DHT22;5283;48.876;8.962;2023-03-13T15:35:31;20.90;99.90
10472;DHT22;5283;48.876;8.962;2023-03-13T15:38:00;21.00;99.90
10472;DHT22;5283;48.876;8.962;2023-03-13T15:40:28;20.90;99.90
10472;DHT22;5283;48.876;8.962;2023-03-13T15:42:56;20.70;99.90
10472;DHT22;5283;48.876;8.962;2023-03-13T15:45:24;20.70;99.90
10472;DHT22;5283;48.876;8.962;2023-03-13T15:47:51;20.70;99.90
10472;DHT22;5283;48.876;8.962;2023-03-13T15:50:19;20.50;99.90
10472;DHT22;5283;48.876;8.962;2023-03-13T15:52:48;20.20;99.90
10472;DHT22;5283;48.876;8.962;2023-03-13T15:55:14;20.00;99.90
10472;DHT22;5283;48.876;8.962;2023-03-13T15:57:44;20.20;99.90
10472;DHT22;5283;48.876;8.962;2023-03-13T16:00:22;20.50;99.90
10472;DHT22;5283;48.876;8.962;2023-03-13T16:02:49;20.80;99.90
10472;DHT22;5283;48.876;8.962;2023-03-13T16:05:16;21.00;99.90
10472;DHT22;5283;48.876;8.962;2023-03-13T16:07:43;21.00;99.90
10472;DHT22;5283;48.876;8.962;2023-03-13T16:10:19;21.00;99.90
10472;DHT22;5283;48.876;8.962;2023-03-13T16:12:50;20.30;99.90
10472;DHT22;5283;48.876;8.962;2023-03-13T16:15:17;19.90;99.90
10472;DHT22;5283;48.876;8.962;2023-03-13T16:17:44;19.70;99.90
10472;DHT22;5283;48.876;8.962;2023-03-13T16:20:17;19.50;99.90
10472;DHT22;5283;48.876;8.962;2023-03-13T16:22:44;19.30;99.90
10472;DHT22;5283;48.876;8.962;2023-03-13T16:25:12;19.30;99.90
10472;DHT22;5283;48.876;8.962;2023-03-13T16:27:39;19.30;99.90
10472;DHT22;5283;48.876;8.962;2023-03-13T16:32:44;19.00;99.90
10472;DHT22;5283;48.876;8.962;2023-03-13T16:35:11;18.80;99.90
10472;DHT22;5283;48.876;8.962;2023-03-13T16:37:38;18.70;99.90
10472;DHT22;5283;48.876;8.962;2023-03-13T16:40:26;18.40;99.90
10472;DHT22;5283;48.876;8.962;2023-03-13T16:42:53;18.30;99.90
10472;DHT22;5283;48.876;8.962;2023-03-13T16:45:20;18.00;99.90
10472;DHT22;5283;48.876;8.962;2023-03-13T16:47:47;17.60;99.90
10472;DHT22;5283;48.876;8.962;2023-03-13T16:50:34;17.60;99.90
10472;DHT22;5283;48.876;8.962;2023-03-13T16:53:01;17.60;99.90
10472;DHT22;5283;48.876;8.962;2023-03-13T16:55:28;17.60;99.90
10472;DHT22;5283;48.876;8.962;2023-03-13T16:57:59;17.60;99.90
10472;DHT22;5283;48.876;8.962;2023-03-13T17:00:27;17.60;99.90
10472;DHT22;5283;48.876;8.962;2023-03-13T17:02:54;17.40;99.90
10472;DHT22;5283;48.876;8.962;2023-03-13T17:05:23;17.00;99.90
10472;DHT22;5283;48.876;8.962;2023-03-13T17:07:50;16.50;99.90
10472;DHT22;5283;48.876;8.962;2023-03-13T17:10:23;16.20;99.90
10472;DHT22;5283;48.876;8.962;2023-03-13T17:12:50;15.90;99.90
10472;DHT22;5283;48.876;8.962;2023-03-13T17:15:18;15.60;99.90
10472;DHT22;5283;48.876;8.962;2023-03-13T17:17:49;15.40;99.90
10472;DHT22;5283;48.876;8.962;2023-03-13T17:20:28;15.20;99.90
10472;DHT22;5283;48.876;8.962;2023-03-13T17:22:55;15.00;99.90
10472;DHT22;5283;48.876;8.962;2023-03-13T17:25:23;14.80;99.90
10472;DHT22;5283;48.876;8.962;2023-03-13T17:27:50;14.60;99.90
10472;DHT22;5283;48.876;8.962;2023-03-13T17:30:28;14.50;99.90
10472;DHT22;5283;48.876;8.962;2023-03-13T17:32:56;14.30;99.90
10472;DHT22;5283;48.876;8.962;2023-03-13T17:35:24;14.10;99.90
10472;DHT22;5283;48.876;8.962;2023-03-13T17:37:51;14.20;99.90